Terminal Aerodrome Forecast
Issued by NWS Shreveport, LA

Home | Current Version | Previous Version | Text Only | Print | Product List | Glossary On
Versions: 1 2 3 4 5 6 7 8 9 10 11 12 13
000
FTUS44 KSHV 290700 AAA
TAFLFK
TAF AMD
KLFK 290728Z 2907/3006 13004KT 1/2SM FG OVC001
      TEMPO 2909/2913 2SM BR BKN004
     FM291500 19011KT P6SM OVC008
     FM291700 19012G18KT P6SM BKN025
     FM291900 19014G22KT P6SM SCT035
     FM292300 18010KT P6SM SCT040=

USA.gov is the U.S. government's official web portal to all federal, state and local government web resources and services.